Impacts METAR Board INFO
IDs:

KFLL - Ft Lauderdale-Hollyw, FL, US

Updated at: 2127 UTC 24 Feb 2018
Potential Impact None Slight Moderate High
Time24/09Z 24/10Z 24/11Z 24/12Z 24/13Z 24/14Z 24/15Z 24/16Z 24/17Z 24/18Z 24/19Z 24/20Z 24/21Z
VIS10 10 10 10 10 10 10 10 10 10 10 10 10
CIG45 80 -- 40 -- -- -- -- -- -- -- -- --
CoverOVCBKNFEWBKNSCTFEWFEWSCTFEWSCTSCTFEWSCT
FltCatVFRVFRVFRVFRVFRVFRVFRVFRVFRVFRVFRVFRVFR
WX--------------------------
WDir120110110110110110100100110110110130130
WSpd13 12 14 14 12 15 17 17 17 14 17 16 14
WGst-- -- -- -- -- -- -- -- -- 24 -- -- --
Raw hourly METARs
KFLL 240853Z 12013KT 10SM SCT027 BKN045 OVC065 23/21 A3018 RMK AO2 RAB01E10 SLP221 P0000 60000 T02330206 56013
KFLL 240953Z 11012KT 10SM FEW027 BKN080 23/21 A3018 RMK AO2 SLP219 T02330211
KFLL 241053Z 11014KT 10SM FEW030 FEW080 23/21 A3019 RMK AO2 SLP221 T02330206
KFLL 241153Z 11014KT 10SM FEW025 SCT030 BKN040 23/21 A3020 RMK AO2 SLP225 60000 70012 T02330206 10233 20222 53004
KFLL 241253Z 11012KT 10SM FEW023 SCT030 SCT042 24/20 A3021 RMK AO2 SLP229 T02440200
KFLL 241353Z 11015KT 10SM FEW024 FEW033 24/21 A3022 RMK AO2 SLP234 T02440206
KFLL 241453Z 10017KT 10SM FEW022 FEW055 25/21 A3023 RMK AO2 RAB06E20 SLP236 P0001 60001 T02500206 51011
KFLL 241553Z 10017KT 10SM FEW026 SCT055 26/20 A3022 RMK AO2 SLP233 T02610200
KFLL 241653Z 11017KT 10SM FEW025 FEW050 27/20 A3020 RMK AO2 SLP228 T02670200
KFLL 241753Z 11014G24KT 10SM SCT025 27/21 A3018 RMK AO2 SLP219 60001 T02720206 10272 20233 58017
KFLL 241853Z 11017KT 10SM SCT023 27/21 A3015 RMK AO2 SLP210 T02670211
KFLL 241953Z 13016KT 10SM FEW024 FEW034 27/21 A3013 RMK AO2 SLP204 T02670206
KFLL 242053Z 13014KT 10SM SCT025 26/20 A3013 RMK AO2 SLP203 T02610200 56015